sensor_id;sensor_type;location;lat;lon;timestamp;P1;durP1;ratioP1;P2;durP2;ratioP2
35743;SDS011;21867;52.012;4.324;2023-06-10T00:01:05;17.15;;;6.82;;
35743;SDS011;21867;52.012;4.324;2023-06-10T00:03:33;8.40;;;6.10;;
35743;SDS011;21867;52.012;4.324;2023-06-10T00:08:37;6.60;;;5.30;;
35743;SDS011;21867;52.012;4.324;2023-06-10T00:11:05;6.68;;;5.30;;
35743;SDS011;21867;52.012;4.324;2023-06-10T00:13:32;11.88;;;6.60;;
35743;SDS011;21867;52.012;4.324;2023-06-10T00:23:10;11.43;;;5.82;;
35743;SDS011;21867;52.012;4.324;2023-06-10T00:25:39;7.68;;;5.45;;
35743;SDS011;21867;52.012;4.324;2023-06-10T00:28:06;10.82;;;6.13;;
35743;SDS011;21867;52.012;4.324;2023-06-10T00:30:33;9.38;;;5.75;;
35743;SDS011;21867;52.012;4.324;2023-06-10T00:33:01;7.05;;;5.15;;
35743;SDS011;21867;52.012;4.324;2023-06-10T00:38:10;6.38;;;5.47;;
35743;SDS011;21867;52.012;4.324;2023-06-10T00:41:00;6.53;;;4.80;;
35743;SDS011;21867;52.012;4.324;2023-06-10T00:43:27;9.30;;;5.60;;
35743;SDS011;21867;52.012;4.324;2023-06-10T00:55:38;7.45;;;6.05;;
35743;SDS011;21867;52.012;4.324;2023-06-10T01:21:44;8.88;;;5.22;;
35743;SDS011;21867;52.012;4.324;2023-06-10T01:24:11;12.80;;;5.25;;
35743;SDS011;21867;52.012;4.324;2023-06-10T01:26:39;5.85;;;5.25;;
35743;SDS011;21867;52.012;4.324;2023-06-10T01:29:10;5.45;;;4.80;;
35743;SDS011;21867;52.012;4.324;2023-06-10T01:31:41;7.88;;;5.63;;
35743;SDS011;21867;52.012;4.324;2023-06-10T01:36:53;6.82;;;5.20;;
35743;SDS011;21867;52.012;4.324;2023-06-10T01:39:23;5.30;;;4.63;;
35743;SDS011;21867;52.012;4.324;2023-06-10T01:41:51;7.55;;;4.90;;
35743;SDS011;21867;52.012;4.324;2023-06-10T01:44:19;6.05;;;4.65;;
35743;SDS011;21867;52.012;4.324;2023-06-10T01:50:27;5.25;;;4.70;;
35743;SDS011;21867;52.012;4.324;2023-06-10T01:52:56;12.93;;;5.47;;
35743;SDS011;21867;52.012;4.324;2023-06-10T01:55:23;6.05;;;4.68;;
35743;SDS011;21867;52.012;4.324;2023-06-10T01:57:51;6.55;;;5.22;;
35743;SDS011;21867;52.012;4.324;2023-06-10T02:00:18;5.63;;;4.57;;
35743;SDS011;21867;52.012;4.324;2023-06-10T02:02:46;5.65;;;4.82;;
35743;SDS011;21867;52.012;4.324;2023-06-10T02:08:05;10.30;;;4.38;;
35743;SDS011;21867;52.012;4.324;2023-06-10T02:10:32;6.45;;;4.85;;
35743;SDS011;21867;52.012;4.324;2023-06-10T02:13:00;8.05;;;5.15;;
35743;SDS011;21867;52.012;4.324;2023-06-10T02:19:14;8.85;;;5.22;;
35743;SDS011;21867;52.012;4.324;2023-06-10T02:21:42;9.43;;;5.35;;
35743;SDS011;21867;52.012;4.324;2023-06-10T02:24:11;6.43;;;4.50;;
35743;SDS011;21867;52.012;4.324;2023-06-10T02:26:38;7.22;;;4.88;;
35743;SDS011;21867;52.012;4.324;2023-06-10T02:29:06;7.22;;;4.53;;
35743;SDS011;21867;52.012;4.324;2023-06-10T02:31:33;5.57;;;4.77;;
35743;SDS011;21867;52.012;4.324;2023-06-10T02:36:44;13.90;;;5.15;;
35743;SDS011;21867;52.012;4.324;2023-06-10T02:39:13;9.63;;;5.57;;
35743;SDS011;21867;52.012;4.324;2023-06-10T02:41:42;5.27;;;4.70;;
35743;SDS011;21867;52.012;4.324;2023-06-10T02:51:39;7.43;;;4.60;;
35743;SDS011;21867;52.012;4.324;2023-06-10T02:57:56;7.32;;;4.95;;
35743;SDS011;21867;52.012;4.324;2023-06-10T03:00:24;4.57;;;4.07;;
35743;SDS011;21867;52.012;4.324;2023-06-10T03:02:52;7.17;;;4.60;;
35743;SDS011;21867;52.012;4.324;2023-06-10T03:05:23;8.17;;;4.60;;
35743;SDS011;21867;52.012;4.324;2023-06-10T03:07:54;8.70;;;4.70;;
35743;SDS011;21867;52.012;4.324;2023-06-10T03:10:22;6.23;;;4.80;;
35743;SDS011;21867;52.012;4.324;2023-06-10T03:12:50;4.93;;;4.43;;
35743;SDS011;21867;52.012;4.324;2023-06-10T03:15:19;9.07;;;4.97;;
35743;SDS011;21867;52.012;4.324;2023-06-10T03:17:47;6.23;;;4.77;;
35743;SDS011;21867;52.012;4.324;2023-06-10T03:20:27;4.43;;;4.03;;
35743;SDS011;21867;52.012;4.324;2023-06-10T03:23:08;6.03;;;4.70;;
35743;SDS011;21867;52.012;4.324;2023-06-10T03:25:36;7.40;;;5.03;;
35743;SDS011;21867;52.012;4.324;2023-06-10T03:28:04;7.60;;;4.47;;
35743;SDS011;21867;52.012;4.324;2023-06-10T03:30:35;5.75;;;4.90;;
35743;SDS011;21867;52.012;4.324;2023-06-10T03:33:03;5.97;;;4.37;;
35743;SDS011;21867;52.012;4.324;2023-06-10T03:41:20;5.60;;;4.77;;
35743;SDS011;21867;52.012;4.324;2023-06-10T03:43:49;6.50;;;4.67;;
35743;SDS011;21867;52.012;4.324;2023-06-10T03:46:18;5.65;;;5.15;;
35743;SDS011;21867;52.012;4.324;2023-06-10T03:52:01;9.27;;;4.73;;
35743;SDS011;21867;52.012;4.324;2023-06-10T03:54:29;5.63;;;5.03;;
35743;SDS011;21867;52.012;4.324;2023-06-10T03:56:56;4.83;;;4.13;;
35743;SDS011;21867;52.012;4.324;2023-06-10T04:06:11;5.17;;;4.67;;
35743;SDS011;21867;52.012;4.324;2023-06-10T04:08:38;9.67;;;5.03;;
35743;SDS011;21867;52.012;4.324;2023-06-10T04:11:05;5.73;;;4.70;;
35743;SDS011;21867;52.012;4.324;2023-06-10T04:13:34;6.27;;;4.70;;
35743;SDS011;21867;52.012;4.324;2023-06-10T04:16:01;10.93;;;3.93;;
35743;SDS011;21867;52.012;4.324;2023-06-10T04:21:20;5.90;;;4.13;;
35743;SDS011;21867;52.012;4.324;2023-06-10T04:23:49;6.37;;;4.47;;
35743;SDS011;21867;52.012;4.324;2023-06-10T04:26:16;7.93;;;4.53;;
35743;SDS011;21867;52.012;4.324;2023-06-10T04:28:44;7.10;;;5.33;;
35743;SDS011;21867;52.012;4.324;2023-06-10T04:34:42;6.23;;;4.47;;
35743;SDS011;21867;52.012;4.324;2023-06-10T04:37:11;6.27;;;5.63;;
35743;SDS011;21867;52.012;4.324;2023-06-10T04:39:39;9.60;;;5.43;;
35743;SDS011;21867;52.012;4.324;2023-06-10T04:42:07;14.60;;;5.53;;
35743;SDS011;21867;52.012;4.324;2023-06-10T04:44:35;5.47;;;4.50;;
35743;SDS011;21867;52.012;4.324;2023-06-10T04:47:02;7.23;;;5.20;;
35743;SDS011;21867;52.012;4.324;2023-06-10T04:49:31;6.17;;;5.40;;
35743;SDS011;21867;52.012;4.324;2023-06-10T04:51:59;8.93;;;4.93;;
35743;SDS011;21867;52.012;4.324;2023-06-10T04:54:27;9.07;;;5.33;;
35743;SDS011;21867;52.012;4.324;2023-06-10T04:56:55;6.63;;;4.73;;
35743;SDS011;21867;52.012;4.324;2023-06-10T05:05:04;7.53;;;4.43;;
35743;SDS011;21867;52.012;4.324;2023-06-10T05:07:32;11.47;;;5.00;;
35743;SDS011;21867;52.012;4.324;2023-06-10T05:10:01;5.60;;;4.47;;
35743;SDS011;21867;52.012;4.324;2023-06-10T05:12:28;7.60;;;4.60;;
35743;SDS011;21867;52.012;4.324;2023-06-10T05:14:56;8.10;;;5.03;;
35743;SDS011;21867;52.012;4.324;2023-06-10T05:17:23;5.57;;;4.77;;
35743;SDS011;21867;52.012;4.324;2023-06-10T05:19:57;10.50;;;5.47;;
35743;SDS011;21867;52.012;4.324;2023-06-10T05:22:24;4.60;;;4.13;;
35743;SDS011;21867;52.012;4.324;2023-06-10T05:24:51;5.07;;;4.50;;
35743;SDS011;21867;52.012;4.324;2023-06-10T05:27:20;6.23;;;4.60;;
35743;SDS011;21867;52.012;4.324;2023-06-10T05:29:59;8.53;;;4.57;;
35743;SDS011;21867;52.012;4.324;2023-06-10T05:32:30;8.17;;;4.93;;
35743;SDS011;21867;52.012;4.324;2023-06-10T05:38:00;5.60;;;4.80;;
35743;SDS011;21867;52.012;4.324;2023-06-10T05:40:29;8.07;;;4.63;;
35743;SDS011;21867;52.012;4.324;2023-06-10T05:42:58;4.70;;;4.13;;
35743;SDS011;21867;52.012;4.324;2023-06-10T05:45:25;9.93;;;5.50;;
35743;SDS011;21867;52.012;4.324;2023-06-10T05:47:52;7.30;;;5.63;;
35743;SDS011;21867;52.012;4.324;2023-06-10T05:50:20;7.23;;;4.77;;
35743;SDS011;21867;52.012;4.324;2023-06-10T05:52:47;9.30;;;5.07;;
35743;SDS011;21867;52.012;4.324;2023-06-10T05:55:15;5.80;;;5.23;;
35743;SDS011;21867;52.012;4.324;2023-06-10T05:57:42;9.00;;;5.50;;
35743;SDS011;21867;52.012;4.324;2023-06-10T06:00:11;8.40;;;5.30;;
35743;SDS011;21867;52.012;4.324;2023-06-10T06:02:40;7.03;;;5.33;;
35743;SDS011;21867;52.012;4.324;2023-06-10T06:05:07;8.40;;;4.73;;
35743;SDS011;21867;52.012;4.324;2023-06-10T06:07:36;7.45;;;5.05;;
35743;SDS011;21867;52.012;4.324;2023-06-10T06:10:03;7.77;;;5.63;;
35743;SDS011;21867;52.012;4.324;2023-06-10T06:12:31;5.97;;;4.40;;
35743;SDS011;21867;52.012;4.324;2023-06-10T06:14:58;8.77;;;5.80;;
35743;SDS011;21867;52.012;4.324;2023-06-10T06:17:27;7.17;;;5.17;;
35743;SDS011;21867;52.012;4.324;2023-06-10T06:19:54;6.50;;;4.80;;
35743;SDS011;21867;52.012;4.324;2023-06-10T06:22:22;8.37;;;5.47;;
35743;SDS011;21867;52.012;4.324;2023-06-10T06:24:49;9.10;;;6.03;;
35743;SDS011;21867;52.012;4.324;2023-06-10T06:27:16;9.10;;;5.43;;
35743;SDS011;21867;52.012;4.324;2023-06-10T06:29:44;11.23;;;5.90;;
35743;SDS011;21867;52.012;4.324;2023-06-10T06:32:12;6.60;;;5.40;;
35743;SDS011;21867;52.012;4.324;2023-06-10T06:34:40;6.83;;;5.37;;
35743;SDS011;21867;52.012;4.324;2023-06-10T06:37:07;10.18;;;5.50;;
35743;SDS011;21867;52.012;4.324;2023-06-10T06:39:39;8.23;;;5.80;;
35743;SDS011;21867;52.012;4.324;2023-06-10T06:42:06;7.55;;;5.18;;
35743;SDS011;21867;52.012;4.324;2023-06-10T06:44:50;7.55;;;5.72;;
35743;SDS011;21867;52.012;4.324;2023-06-10T06:47:17;7.72;;;5.43;;
35743;SDS011;21867;52.012;4.324;2023-06-10T06:49:46;8.53;;;5.17;;
35743;SDS011;21867;52.012;4.324;2023-06-10T06:52:14;9.07;;;5.70;;
35743;SDS011;21867;52.012;4.324;2023-06-10T06:54:42;6.63;;;4.83;;
35743;SDS011;21867;52.012;4.324;2023-06-10T06:57:09;6.30;;;5.28;;
35743;SDS011;21867;52.012;4.324;2023-06-10T06:59:36;11.73;;;5.83;;
35743;SDS011;21867;52.012;4.324;2023-06-10T07:02:04;9.57;;;5.47;;
35743;SDS011;21867;52.012;4.324;2023-06-10T07:04:44;11.75;;;4.90;;
35743;SDS011;21867;52.012;4.324;2023-06-10T07:07:25;7.30;;;5.37;;
35743;SDS011;21867;52.012;4.324;2023-06-10T07:09:58;6.97;;;5.38;;
35743;SDS011;21867;52.012;4.324;2023-06-10T07:12:25;6.90;;;4.80;;
35743;SDS011;21867;52.012;4.324;2023-06-10T07:14:53;5.57;;;4.70;;
35743;SDS011;21867;52.012;4.324;2023-06-10T07:17:20;4.97;;;4.10;;
35743;SDS011;21867;52.012;4.324;2023-06-10T07:22:46;8.13;;;5.60;;
35743;SDS011;21867;52.012;4.324;2023-06-10T07:25:13;10.90;;;5.20;;
35743;SDS011;21867;52.012;4.324;2023-06-10T07:27:41;7.27;;;5.03;;
35743;SDS011;21867;52.012;4.324;2023-06-10T07:30:14;11.23;;;5.53;;
35743;SDS011;21867;52.012;4.324;2023-06-10T07:32:42;9.73;;;5.40;;
35743;SDS011;21867;52.012;4.324;2023-06-10T07:35:09;11.55;;;5.80;;
35743;SDS011;21867;52.012;4.324;2023-06-10T07:40:16;5.70;;;5.07;;
35743;SDS011;21867;52.012;4.324;2023-06-10T07:42:44;9.60;;;5.43;;
35743;SDS011;21867;52.012;4.324;2023-06-10T07:45:11;6.67;;;5.63;;
35743;SDS011;21867;52.012;4.324;2023-06-10T07:47:38;4.97;;;3.73;;
35743;SDS011;21867;52.012;4.324;2023-06-10T07:50:06;6.90;;;4.65;;
35743;SDS011;21867;52.012;4.324;2023-06-10T07:52:34;9.32;;;5.10;;
35743;SDS011;21867;52.012;4.324;2023-06-10T07:55:01;5.32;;;4.80;;
35743;SDS011;21867;52.012;4.324;2023-06-10T07:57:33;5.40;;;4.28;;
35743;SDS011;21867;52.012;4.324;2023-06-10T08:00:02;7.17;;;4.57;;
35743;SDS011;21867;52.012;4.324;2023-06-10T08:02:37;7.28;;;5.00;;
35743;SDS011;21867;52.012;4.324;2023-06-10T08:05:05;6.20;;;4.90;;
35743;SDS011;21867;52.012;4.324;2023-06-10T08:07:34;8.57;;;5.20;;
35743;SDS011;21867;52.012;4.324;2023-06-10T08:10:01;8.70;;;5.00;;
35743;SDS011;21867;52.012;4.324;2023-06-10T08:12:36;9.20;;;5.23;;
35743;SDS011;21867;52.012;4.324;2023-06-10T08:15:14;7.05;;;5.47;;
35743;SDS011;21867;52.012;4.324;2023-06-10T08:17:43;9.00;;;5.30;;
35743;SDS011;21867;52.012;4.324;2023-06-10T08:25:42;9.25;;;5.13;;
35743;SDS011;21867;52.012;4.324;2023-06-10T08:28:13;5.32;;;4.82;;
35743;SDS011;21867;52.012;4.324;2023-06-10T08:30:40;7.10;;;4.65;;
35743;SDS011;21867;52.012;4.324;2023-06-10T08:33:07;9.07;;;4.85;;
35743;SDS011;21867;52.012;4.324;2023-06-10T08:35:35;9.13;;;5.20;;
35743;SDS011;21867;52.012;4.324;2023-06-10T08:38:02;5.93;;;4.82;;
35743;SDS011;21867;52.012;4.324;2023-06-10T08:40:29;8.77;;;5.85;;
35743;SDS011;21867;52.012;4.324;2023-06-10T08:42:58;6.20;;;5.00;;
35743;SDS011;21867;52.012;4.324;2023-06-10T08:45:29;6.28;;;5.35;;
35743;SDS011;21867;52.012;4.324;2023-06-10T08:47:57;5.93;;;5.20;;
35743;SDS011;21867;52.012;4.324;2023-06-10T08:50:25;9.82;;;5.10;;
35743;SDS011;21867;52.012;4.324;2023-06-10T08:52:53;7.53;;;5.20;;
35743;SDS011;21867;52.012;4.324;2023-06-10T08:55:21;8.30;;;4.57;;
35743;SDS011;21867;52.012;4.324;2023-06-10T08:57:50;6.25;;;4.57;;
35743;SDS011;21867;52.012;4.324;2023-06-10T09:00:18;8.18;;;4.88;;
35743;SDS011;21867;52.012;4.324;2023-06-10T09:02:46;6.25;;;4.68;;
35743;SDS011;21867;52.012;4.324;2023-06-10T09:05:14;10.88;;;5.18;;
35743;SDS011;21867;52.012;4.324;2023-06-10T09:07:41;9.02;;;6.35;;
35743;SDS011;21867;52.012;4.324;2023-06-10T09:10:09;7.43;;;5.88;;
35743;SDS011;21867;52.012;4.324;2023-06-10T09:12:38;8.40;;;5.47;;
35743;SDS011;21867;52.012;4.324;2023-06-10T09:15:06;8.70;;;5.88;;
35743;SDS011;21867;52.012;4.324;2023-06-10T09:17:33;6.20;;;4.93;;
35743;SDS011;21867;52.012;4.324;2023-06-10T09:20:02;6.90;;;4.43;;
35743;SDS011;21867;52.012;4.324;2023-06-10T09:22:30;7.70;;;4.70;;
35743;SDS011;21867;52.012;4.324;2023-06-10T09:25:03;6.38;;;5.28;;
35743;SDS011;21867;52.012;4.324;2023-06-10T09:27:31;7.13;;;5.57;;
35743;SDS011;21867;52.012;4.324;2023-06-10T09:29:58;6.60;;;4.82;;
35743;SDS011;21867;52.012;4.324;2023-06-10T09:32:26;10.35;;;5.57;;
35743;SDS011;21867;52.012;4.324;2023-06-10T09:34:57;9.25;;;5.10;;
35743;SDS011;21867;52.012;4.324;2023-06-10T09:40:11;7.32;;;5.60;;
35743;SDS011;21867;52.012;4.324;2023-06-10T09:42:39;6.70;;;4.50;;
35743;SDS011;21867;52.012;4.324;2023-06-10T09:45:07;13.90;;;5.93;;
35743;SDS011;21867;52.012;4.324;2023-06-10T09:47:34;5.63;;;4.90;;
35743;SDS011;21867;52.012;4.324;2023-06-10T09:50:02;10.18;;;5.05;;
35743;SDS011;21867;52.012;4.324;2023-06-10T09:52:29;7.00;;;5.22;;
35743;SDS011;21867;52.012;4.324;2023-06-10T09:54:59;10.07;;;5.20;;
35743;SDS011;21867;52.012;4.324;2023-06-10T09:57:29;8.65;;;5.65;;
35743;SDS011;21867;52.012;4.324;2023-06-10T09:59:57;9.65;;;5.28;;
35743;SDS011;21867;52.012;4.324;2023-06-10T10:02:24;9.07;;;5.55;;
35743;SDS011;21867;52.012;4.324;2023-06-10T10:04:52;7.65;;;5.28;;
35743;SDS011;21867;52.012;4.324;2023-06-10T10:07:19;14.63;;;5.00;;
35743;SDS011;21867;52.012;4.324;2023-06-10T10:09:47;6.28;;;4.63;;
35743;SDS011;21867;52.012;4.324;2023-06-10T10:12:15;11.07;;;5.22;;
35743;SDS011;21867;52.012;4.324;2023-06-10T10:14:45;5.72;;;4.43;;
35743;SDS011;21867;52.012;4.324;2023-06-10T10:17:14;8.73;;;5.28;;
35743;SDS011;21867;52.012;4.324;2023-06-10T10:19:43;7.40;;;4.68;;
35743;SDS011;21867;52.012;4.324;2023-06-10T10:25:16;5.32;;;4.82;;
35743;SDS011;21867;52.012;4.324;2023-06-10T10:27:47;6.35;;;4.88;;
35743;SDS011;21867;52.012;4.324;2023-06-10T10:30:17;9.90;;;5.47;;
35743;SDS011;21867;52.012;4.324;2023-06-10T10:32:46;10.80;;;4.95;;
35743;SDS011;21867;52.012;4.324;2023-06-10T10:35:19;5.57;;;4.47;;
35743;SDS011;21867;52.012;4.324;2023-06-10T10:37:48;7.95;;;4.53;;
35743;SDS011;21867;52.012;4.324;2023-06-10T10:40:18;5.30;;;4.80;;
35743;SDS011;21867;52.012;4.324;2023-06-10T10:42:47;5.10;;;4.25;;
35743;SDS011;21867;52.012;4.324;2023-06-10T10:45:14;6.07;;;4.60;;
35743;SDS011;21867;52.012;4.324;2023-06-10T10:47:57;5.82;;;4.35;;
35743;SDS011;21867;52.012;4.324;2023-06-10T10:50:31;7.93;;;5.07;;
35743;SDS011;21867;52.012;4.324;2023-06-10T10:52:59;10.15;;;5.05;;
35743;SDS011;21867;52.012;4.324;2023-06-10T10:55:27;7.97;;;5.43;;
35743;SDS011;21867;52.012;4.324;2023-06-10T10:57:55;9.80;;;6.22;;
35743;SDS011;21867;52.012;4.324;2023-06-10T11:00:29;6.97;;;5.40;;
35743;SDS011;21867;52.012;4.324;2023-06-10T11:02:58;7.47;;;5.45;;
35743;SDS011;21867;52.012;4.324;2023-06-10T11:05:39;7.22;;;4.40;;
35743;SDS011;21867;52.012;4.324;2023-06-10T11:08:07;7.43;;;4.65;;
35743;SDS011;21867;52.012;4.324;2023-06-10T11:13:06;7.22;;;5.78;;
35743;SDS011;21867;52.012;4.324;2023-06-10T11:15:34;13.60;;;5.50;;
35743;SDS011;21867;52.012;4.324;2023-06-10T11:18:13;9.98;;;5.28;;
35743;SDS011;21867;52.012;4.324;2023-06-10T11:30:20;7.50;;;5.10;;
35743;SDS011;21867;52.012;4.324;2023-06-10T11:32:50;9.10;;;5.50;;
35743;SDS011;21867;52.012;4.324;2023-06-10T11:35:19;11.52;;;5.50;;
35743;SDS011;21867;52.012;4.324;2023-06-10T11:37:48;9.30;;;5.32;;
35743;SDS011;21867;52.012;4.324;2023-06-10T11:40:15;5.97;;;5.05;;
35743;SDS011;21867;52.012;4.324;2023-06-10T11:42:43;6.57;;;4.47;;
35743;SDS011;21867;52.012;4.324;2023-06-10T11:45:14;6.35;;;5.25;;
35743;SDS011;21867;52.012;4.324;2023-06-10T11:47:42;6.28;;;4.90;;
35743;SDS011;21867;52.012;4.324;2023-06-10T11:50:28;5.28;;;4.78;;
35743;SDS011;21867;52.012;4.324;2023-06-10T11:52:56;8.82;;;4.97;;
35743;SDS011;21867;52.012;4.324;2023-06-10T11:55:23;6.40;;;5.05;;
35743;SDS011;21867;52.012;4.324;2023-06-10T12:00:26;7.57;;;5.07;;
35743;SDS011;21867;52.012;4.324;2023-06-10T12:02:56;6.25;;;4.30;;
35743;SDS011;21867;52.012;4.324;2023-06-10T12:05:24;8.23;;;5.25;;
35743;SDS011;21867;52.012;4.324;2023-06-10T12:08:08;8.52;;;4.88;;
35743;SDS011;21867;52.012;4.324;2023-06-10T12:10:40;6.70;;;4.55;;
35743;SDS011;21867;52.012;4.324;2023-06-10T12:20:24;8.55;;;4.85;;
35743;SDS011;21867;52.012;4.324;2023-06-10T12:25:50;12.57;;;4.40;;
35743;SDS011;21867;52.012;4.324;2023-06-10T12:28:20;5.93;;;4.65;;
35743;SDS011;21867;52.012;4.324;2023-06-10T12:30:47;5.40;;;4.43;;
35743;SDS011;21867;52.012;4.324;2023-06-10T12:33:17;9.23;;;4.47;;
35743;SDS011;21867;52.012;4.324;2023-06-10T12:35:49;10.57;;;5.22;;
35743;SDS011;21867;52.012;4.324;2023-06-10T12:38:20;5.57;;;4.97;;
35743;SDS011;21867;52.012;4.324;2023-06-10T12:40:48;5.82;;;4.68;;
35743;SDS011;21867;52.012;4.324;2023-06-10T12:43:20;5.72;;;5.22;;
35743;SDS011;21867;52.012;4.324;2023-06-10T12:45:47;4.68;;;4.25;;
35743;SDS011;21867;52.012;4.324;2023-06-10T12:48:27;8.35;;;4.65;;
35743;SDS011;21867;52.012;4.324;2023-06-10T12:51:55;6.50;;;4.75;;
35743;SDS011;21867;52.012;4.324;2023-06-10T12:54:23;6.70;;;4.82;;
35743;SDS011;21867;52.012;4.324;2023-06-10T12:56:51;5.03;;;4.30;;
35743;SDS011;21867;52.012;4.324;2023-06-10T12:59:20;6.68;;;4.18;;
35743;SDS011;21867;52.012;4.324;2023-06-10T13:01:49;6.22;;;4.97;;
35743;SDS011;21867;52.012;4.324;2023-06-10T13:07:06;6.60;;;4.65;;
35743;SDS011;21867;52.012;4.324;2023-06-10T13:09:33;6.50;;;4.60;;
35743;SDS011;21867;52.012;4.324;2023-06-10T13:12:01;4.70;;;4.30;;
35743;SDS011;21867;52.012;4.324;2023-06-10T13:14:29;5.75;;;4.85;;
35743;SDS011;21867;52.012;4.324;2023-06-10T13:16:57;4.97;;;3.95;;
35743;SDS011;21867;52.012;4.324;2023-06-10T13:19:24;4.32;;;3.92;;
35743;SDS011;21867;52.012;4.324;2023-06-10T13:21:52;4.30;;;3.90;;
35743;SDS011;21867;52.012;4.324;2023-06-10T13:24:19;5.30;;;4.53;;
35743;SDS011;21867;52.012;4.324;2023-06-10T13:26:49;5.03;;;4.45;;
35743;SDS011;21867;52.012;4.324;2023-06-10T13:29:22;5.38;;;4.97;;
35743;SDS011;21867;52.012;4.324;2023-06-10T13:31:51;9.48;;;4.82;;
35743;SDS011;21867;52.012;4.324;2023-06-10T13:37:11;6.45;;;3.75;;
35743;SDS011;21867;52.012;4.324;2023-06-10T13:39:38;5.28;;;4.00;;
35743;SDS011;21867;52.012;4.324;2023-06-10T13:42:06;5.32;;;4.13;;
35743;SDS011;21867;52.012;4.324;2023-06-10T13:48:19;10.02;;;4.90;;
35743;SDS011;21867;52.012;4.324;2023-06-10T13:50:47;5.60;;;4.50;;
35743;SDS011;21867;52.012;4.324;2023-06-10T13:53:14;5.75;;;4.43;;
35743;SDS011;21867;52.012;4.324;2023-06-10T13:55:41;7.20;;;4.95;;
35743;SDS011;21867;52.012;4.324;2023-06-10T13:58:09;5.75;;;4.32;;
35743;SDS011;21867;52.012;4.324;2023-06-10T14:00:36;6.13;;;5.03;;
35743;SDS011;21867;52.012;4.324;2023-06-10T14:08:36;5.03;;;4.60;;
35743;SDS011;21867;52.012;4.324;2023-06-10T14:11:03;5.18;;;4.68;;
35743;SDS011;21867;52.012;4.324;2023-06-10T14:17:07;12.38;;;4.68;;
35743;SDS011;21867;52.012;4.324;2023-06-10T14:19:34;5.10;;;4.03;;
35743;SDS011;21867;52.012;4.324;2023-06-10T14:22:01;5.43;;;4.18;;
35743;SDS011;21867;52.012;4.324;2023-06-10T14:24:35;7.07;;;4.60;;
35743;SDS011;21867;52.012;4.324;2023-06-10T14:27:02;5.85;;;4.32;;
35743;SDS011;21867;52.012;4.324;2023-06-10T14:29:30;5.55;;;4.63;;
35743;SDS011;21867;52.012;4.324;2023-06-10T14:32:02;9.20;;;4.40;;
35743;SDS011;21867;52.012;4.324;2023-06-10T14:34:35;7.38;;;3.63;;
35743;SDS011;21867;52.012;4.324;2023-06-10T14:37:02;5.75;;;4.18;;
35743;SDS011;21867;52.012;4.324;2023-06-10T14:39:29;4.50;;;4.10;;
35743;SDS011;21867;52.012;4.324;2023-06-10T14:44:56;8.38;;;5.03;;
35743;SDS011;21867;52.012;4.324;2023-06-10T14:48:16;12.70;;;4.88;;
35743;SDS011;21867;52.012;4.324;2023-06-10T14:50:43;5.30;;;4.03;;
35743;SDS011;21867;52.012;4.324;2023-06-10T14:53:10;5.03;;;4.30;;
35743;SDS011;21867;52.012;4.324;2023-06-10T14:55:38;6.10;;;4.28;;
35743;SDS011;21867;52.012;4.324;2023-06-10T14:58:05;7.10;;;4.57;;
35743;SDS011;21867;52.012;4.324;2023-06-10T15:00:34;7.95;;;4.85;;
35743;SDS011;21867;52.012;4.324;2023-06-10T15:03:01;7.43;;;4.72;;
35743;SDS011;21867;52.012;4.324;2023-06-10T15:05:28;7.43;;;4.22;;
35743;SDS011;21867;52.012;4.324;2023-06-10T15:07:56;6.47;;;4.45;;
35743;SDS011;21867;52.012;4.324;2023-06-10T15:10:23;4.93;;;4.30;;
35743;SDS011;21867;52.012;4.324;2023-06-10T15:12:50;6.18;;;4.03;;
35743;SDS011;21867;52.012;4.324;2023-06-10T15:15:18;8.70;;;4.72;;
35743;SDS011;21867;52.012;4.324;2023-06-10T15:17:46;5.68;;;4.55;;
35743;SDS011;21867;52.012;4.324;2023-06-10T15:20:14;6.47;;;4.68;;
35743;SDS011;21867;52.012;4.324;2023-06-10T15:22:41;7.18;;;3.97;;
35743;SDS011;21867;52.012;4.324;2023-06-10T15:25:09;6.32;;;4.32;;
35743;SDS011;21867;52.012;4.324;2023-06-10T15:27:39;9.30;;;4.25;;
35743;SDS011;21867;52.012;4.324;2023-06-10T15:30:07;6.20;;;4.68;;
35743;SDS011;21867;52.012;4.324;2023-06-10T15:32:41;4.63;;;3.90;;
35743;SDS011;21867;52.012;4.324;2023-06-10T15:35:19;8.77;;;4.65;;
35743;SDS011;21867;52.012;4.324;2023-06-10T15:37:48;7.50;;;4.57;;
35743;SDS011;21867;52.012;4.324;2023-06-10T15:40:15;5.00;;;4.10;;
35743;SDS011;21867;52.012;4.324;2023-06-10T15:42:43;7.22;;;5.10;;
35743;SDS011;21867;52.012;4.324;2023-06-10T15:45:10;8.48;;;4.40;;
35743;SDS011;21867;52.012;4.324;2023-06-10T15:47:39;7.25;;;4.40;;
35743;SDS011;21867;52.012;4.324;2023-06-10T15:50:07;5.35;;;4.05;;
35743;SDS011;21867;52.012;4.324;2023-06-10T15:52:41;6.45;;;4.03;;
35743;SDS011;21867;52.012;4.324;2023-06-10T15:55:08;9.73;;;4.88;;
35743;SDS011;21867;52.012;4.324;2023-06-10T15:57:36;4.18;;;3.78;;
35743;SDS011;21867;52.012;4.324;2023-06-10T16:00:04;5.45;;;4.60;;
35743;SDS011;21867;52.012;4.324;2023-06-10T16:02:38;6.57;;;3.67;;
35743;SDS011;21867;52.012;4.324;2023-06-10T16:05:18;4.72;;;3.92;;
35743;SDS011;21867;52.012;4.324;2023-06-10T16:07:52;6.00;;;3.90;;
35743;SDS011;21867;52.012;4.324;2023-06-10T16:10:20;4.82;;;4.38;;
35743;SDS011;21867;52.012;4.324;2023-06-10T16:12:47;11.93;;;4.70;;
35743;SDS011;21867;52.012;4.324;2023-06-10T16:15:15;6.10;;;4.50;;
35743;SDS011;21867;52.012;4.324;2023-06-10T16:17:42;6.75;;;4.65;;
35743;SDS011;21867;52.012;4.324;2023-06-10T16:20:10;5.53;;;3.72;;
35743;SDS011;21867;52.012;4.324;2023-06-10T16:22:42;8.77;;;4.47;;
35743;SDS011;21867;52.012;4.324;2023-06-10T16:25:11;7.30;;;4.15;;
35743;SDS011;21867;52.012;4.324;2023-06-10T16:27:38;5.32;;;3.85;;
35743;SDS011;21867;52.012;4.324;2023-06-10T16:30:06;7.43;;;4.20;;
35743;SDS011;21867;52.012;4.324;2023-06-10T16:35:35;5.65;;;4.03;;
35743;SDS011;21867;52.012;4.324;2023-06-10T16:38:02;6.00;;;4.15;;
35743;SDS011;21867;52.012;4.324;2023-06-10T16:40:31;4.45;;;4.00;;
35743;SDS011;21867;52.012;4.324;2023-06-10T16:42:59;5.72;;;3.85;;
35743;SDS011;21867;52.012;4.324;2023-06-10T16:45:26;5.22;;;3.88;;
35743;SDS011;21867;52.012;4.324;2023-06-10T16:47:53;10.88;;;4.00;;
35743;SDS011;21867;52.012;4.324;2023-06-10T16:53:03;5.40;;;3.92;;
35743;SDS011;21867;52.012;4.324;2023-06-10T16:55:32;5.28;;;4.40;;
35743;SDS011;21867;52.012;4.324;2023-06-10T16:57:59;8.05;;;3.88;;
35743;SDS011;21867;52.012;4.324;2023-06-10T17:07:28;4.72;;;3.75;;
35743;SDS011;21867;52.012;4.324;2023-06-10T17:09:56;3.88;;;3.45;;
35743;SDS011;21867;52.012;4.324;2023-06-10T17:12:25;4.75;;;4.22;;
35743;SDS011;21867;52.012;4.324;2023-06-10T17:14:52;9.13;;;5.07;;
35743;SDS011;21867;52.012;4.324;2023-06-10T17:17:19;6.15;;;3.80;;
35743;SDS011;21867;52.012;4.324;2023-06-10T17:19:47;9.43;;;3.72;;
35743;SDS011;21867;52.012;4.324;2023-06-10T17:22:22;4.07;;;3.67;;
35743;SDS011;21867;52.012;4.324;2023-06-10T17:24:49;4.97;;;4.40;;
35743;SDS011;21867;52.012;4.324;2023-06-10T17:27:16;4.70;;;3.53;;
35743;SDS011;21867;52.012;4.324;2023-06-10T17:29:45;5.65;;;3.40;;
35743;SDS011;21867;52.012;4.324;2023-06-10T17:32:24;6.53;;;3.70;;
35743;SDS011;21867;52.012;4.324;2023-06-10T17:38:16;9.05;;;4.65;;
35743;SDS011;21867;52.012;4.324;2023-06-10T17:40:43;4.20;;;3.58;;
35743;SDS011;21867;52.012;4.324;2023-06-10T17:43:11;5.55;;;3.17;;
35743;SDS011;21867;52.012;4.324;2023-06-10T17:45:41;8.02;;;3.25;;
35743;SDS011;21867;52.012;4.324;2023-06-10T17:48:09;5.63;;;2.80;;
35743;SDS011;21867;52.012;4.324;2023-06-10T17:50:40;5.60;;;3.55;;
35743;SDS011;21867;52.012;4.324;2023-06-10T17:53:07;4.85;;;3.90;;
35743;SDS011;21867;52.012;4.324;2023-06-10T17:55:35;4.75;;;3.25;;
35743;SDS011;21867;52.012;4.324;2023-06-10T17:58:02;5.45;;;3.53;;
35743;SDS011;21867;52.012;4.324;2023-06-10T18:00:30;5.60;;;3.50;;